sensor_id;sensor_type;location;lat;lon;timestamp;P1;durP1;ratioP1;P2;durP2;ratioP2
26963;SDS011;14521;48.148;-1.656;2022-09-09T00:26:53;5.28;;;0.90;;
26963;SDS011;14521;48.148;-1.656;2022-09-09T00:30:32;3.42;;;1.10;;
26963;SDS011;14521;48.148;-1.656;2022-09-09T00:34:11;3.85;;;1.15;;
26963;SDS011;14521;48.148;-1.656;2022-09-09T00:37:40;2.28;;;0.90;;
26963;SDS011;14521;48.148;-1.656;2022-09-09T00:48:45;1.90;;;0.63;;
26963;SDS011;14521;48.148;-1.656;2022-09-09T00:59:48;2.53;;;0.77;;
26963;SDS011;14521;48.148;-1.656;2022-09-09T01:06:46;3.28;;;0.93;;
26963;SDS011;14521;48.148;-1.656;2022-09-09T01:10:37;2.22;;;0.82;;
26963;SDS011;14521;48.148;-1.656;2022-09-09T01:14:38;3.88;;;0.73;;
26963;SDS011;14521;48.148;-1.656;2022-09-09T01:18:06;3.95;;;0.80;;
26963;SDS011;14521;48.148;-1.656;2022-09-09T01:28:50;3.22;;;0.85;;
26963;SDS011;14521;48.148;-1.656;2022-09-09T01:36:14;2.78;;;0.80;;
26963;SDS011;14521;48.148;-1.656;2022-09-09T01:39:47;2.37;;;0.77;;
26963;SDS011;14521;48.148;-1.656;2022-09-09T01:43:11;1.85;;;0.57;;
26963;SDS011;14521;48.148;-1.656;2022-09-09T01:46:33;4.18;;;0.80;;
26963;SDS011;14521;48.148;-1.656;2022-09-09T01:49:57;4.53;;;1.00;;
26963;SDS011;14521;48.148;-1.656;2022-09-09T01:53:23;4.25;;;0.82;;
26963;SDS011;14521;48.148;-1.656;2022-09-09T01:56:47;2.38;;;0.90;;
26963;SDS011;14521;48.148;-1.656;2022-09-09T02:00:13;3.25;;;0.77;;
26963;SDS011;14521;48.148;-1.656;2022-09-09T02:03:37;3.83;;;0.85;;
26963;SDS011;14521;48.148;-1.656;2022-09-09T02:07:11;2.55;;;0.82;;
26963;SDS011;14521;48.148;-1.656;2022-09-09T02:14:39;3.95;;;0.70;;
26963;SDS011;14521;48.148;-1.656;2022-09-09T02:18:10;2.53;;;0.75;;
26963;SDS011;14521;48.148;-1.656;2022-09-09T02:21:36;3.05;;;0.98;;
26963;SDS011;14521;48.148;-1.656;2022-09-09T02:24:59;1.75;;;0.82;;
26963;SDS011;14521;48.148;-1.656;2022-09-09T02:28:24;2.95;;;0.68;;
26963;SDS011;14521;48.148;-1.656;2022-09-09T02:31:50;4.25;;;0.77;;
26963;SDS011;14521;48.148;-1.656;2022-09-09T02:35:19;7.53;;;0.88;;
26963;SDS011;14521;48.148;-1.656;2022-09-09T02:38:46;2.65;;;0.68;;
26963;SDS011;14521;48.148;-1.656;2022-09-09T02:42:18;3.95;;;1.23;;
26963;SDS011;14521;48.148;-1.656;2022-09-09T02:45:47;2.63;;;0.90;;
26963;SDS011;14521;48.148;-1.656;2022-09-09T02:56:27;4.90;;;0.82;;
26963;SDS011;14521;48.148;-1.656;2022-09-09T02:59:59;5.47;;;1.08;;
26963;SDS011;14521;48.148;-1.656;2022-09-09T03:03:25;4.53;;;0.60;;
26963;SDS011;14521;48.148;-1.656;2022-09-09T03:06:48;3.22;;;0.65;;
26963;SDS011;14521;48.148;-1.656;2022-09-09T03:10:14;1.65;;;0.50;;
26963;SDS011;14521;48.148;-1.656;2022-09-09T03:13:36;2.45;;;1.00;;
26963;SDS011;14521;48.148;-1.656;2022-09-09T03:17:00;3.40;;;0.70;;
26963;SDS011;14521;48.148;-1.656;2022-09-09T03:20:29;4.32;;;0.77;;
26963;SDS011;14521;48.148;-1.656;2022-09-09T03:23:52;3.17;;;0.50;;
26963;SDS011;14521;48.148;-1.656;2022-09-09T03:27:15;4.57;;;0.80;;
26963;SDS011;14521;48.148;-1.656;2022-09-09T03:30:37;2.75;;;0.80;;
26963;SDS011;14521;48.148;-1.656;2022-09-09T03:34:00;2.17;;;0.70;;
26963;SDS011;14521;48.148;-1.656;2022-09-09T03:40:48;1.67;;;0.60;;
26963;SDS011;14521;48.148;-1.656;2022-09-09T03:44:19;3.92;;;0.75;;
26963;SDS011;14521;48.148;-1.656;2022-09-09T03:47:42;4.00;;;0.73;;
26963;SDS011;14521;48.148;-1.656;2022-09-09T03:51:04;2.28;;;0.60;;
26963;SDS011;14521;48.148;-1.656;2022-09-09T03:54:28;2.67;;;0.77;;
26963;SDS011;14521;48.148;-1.656;2022-09-09T03:57:50;1.60;;;0.52;;
26963;SDS011;14521;48.148;-1.656;2022-09-09T04:01:14;2.88;;;0.50;;
26963;SDS011;14521;48.148;-1.656;2022-09-09T04:04:40;2.33;;;0.45;;
26963;SDS011;14521;48.148;-1.656;2022-09-09T04:08:02;2.60;;;0.60;;
26963;SDS011;14521;48.148;-1.656;2022-09-09T04:11:24;4.10;;;0.60;;
26963;SDS011;14521;48.148;-1.656;2022-09-09T04:14:49;1.58;;;0.77;;
26963;SDS011;14521;48.148;-1.656;2022-09-09T04:18:11;1.48;;;0.55;;
26963;SDS011;14521;48.148;-1.656;2022-09-09T04:21:40;3.05;;;0.63;;
26963;SDS011;14521;48.148;-1.656;2022-09-09T04:25:03;3.05;;;0.60;;
26963;SDS011;14521;48.148;-1.656;2022-09-09T04:28:26;1.45;;;0.60;;
26963;SDS011;14521;48.148;-1.656;2022-09-09T04:35:13;1.48;;;0.60;;
26963;SDS011;14521;48.148;-1.656;2022-09-09T04:38:36;3.92;;;0.88;;
26963;SDS011;14521;48.148;-1.656;2022-09-09T04:41:58;5.50;;;0.70;;
26963;SDS011;14521;48.148;-1.656;2022-09-09T04:45:21;2.42;;;0.70;;
26963;SDS011;14521;48.148;-1.656;2022-09-09T04:48:43;4.20;;;0.75;;
26963;SDS011;14521;48.148;-1.656;2022-09-09T04:52:06;1.23;;;0.60;;
26963;SDS011;14521;48.148;-1.656;2022-09-09T04:55:30;2.97;;;0.50;;
26963;SDS011;14521;48.148;-1.656;2022-09-09T04:58:53;4.20;;;0.63;;
26963;SDS011;14521;48.148;-1.656;2022-09-09T05:02:21;3.95;;;0.40;;
26963;SDS011;14521;48.148;-1.656;2022-09-09T05:05:45;2.50;;;0.38;;
26963;SDS011;14521;48.148;-1.656;2022-09-09T05:09:07;2.10;;;0.80;;
26963;SDS011;14521;48.148;-1.656;2022-09-09T05:12:31;3.25;;;0.55;;
26963;SDS011;14521;48.148;-1.656;2022-09-09T05:15:54;3.42;;;0.57;;
26963;SDS011;14521;48.148;-1.656;2022-09-09T05:19:17;5.18;;;0.68;;
26963;SDS011;14521;48.148;-1.656;2022-09-09T05:22:43;3.90;;;0.70;;
26963;SDS011;14521;48.148;-1.656;2022-09-09T05:26:06;1.77;;;0.63;;
26963;SDS011;14521;48.148;-1.656;2022-09-09T05:29:29;1.15;;;0.40;;
26963;SDS011;14521;48.148;-1.656;2022-09-09T05:32:57;3.40;;;0.85;;
26963;SDS011;14521;48.148;-1.656;2022-09-09T05:36:20;1.90;;;0.60;;
26963;SDS011;14521;48.148;-1.656;2022-09-09T05:39:47;2.00;;;0.55;;
26963;SDS011;14521;48.148;-1.656;2022-09-09T05:43:11;4.00;;;1.10;;
26963;SDS011;14521;48.148;-1.656;2022-09-09T05:46:34;2.42;;;0.88;;
26963;SDS011;14521;48.148;-1.656;2022-09-09T05:49:58;7.75;;;0.80;;
26963;SDS011;14521;48.148;-1.656;2022-09-09T05:53:20;4.50;;;0.80;;
26963;SDS011;14521;48.148;-1.656;2022-09-09T05:56:43;6.80;;;1.00;;
26963;SDS011;14521;48.148;-1.656;2022-09-09T06:00:12;3.63;;;0.80;;
26963;SDS011;14521;48.148;-1.656;2022-09-09T06:03:40;2.45;;;0.82;;
26963;SDS011;14521;48.148;-1.656;2022-09-09T06:07:04;3.83;;;0.90;;
26963;SDS011;14521;48.148;-1.656;2022-09-09T06:10:27;3.58;;;0.77;;
26963;SDS011;14521;48.148;-1.656;2022-09-09T06:13:50;3.97;;;0.90;;
26963;SDS011;14521;48.148;-1.656;2022-09-09T06:17:16;6.20;;;1.00;;
26963;SDS011;14521;48.148;-1.656;2022-09-09T06:20:38;8.43;;;1.15;;
26963;SDS011;14521;48.148;-1.656;2022-09-09T06:24:00;6.80;;;0.77;;
26963;SDS011;14521;48.148;-1.656;2022-09-09T06:27:23;3.85;;;0.90;;
26963;SDS011;14521;48.148;-1.656;2022-09-09T06:30:45;6.88;;;1.10;;
26963;SDS011;14521;48.148;-1.656;2022-09-09T06:34:09;9.43;;;1.35;;
26963;SDS011;14521;48.148;-1.656;2022-09-09T06:37:35;8.70;;;1.17;;
26963;SDS011;14521;48.148;-1.656;2022-09-09T06:40:59;12.98;;;1.20;;
26963;SDS011;14521;48.148;-1.656;2022-09-09T06:44:22;5.47;;;1.20;;
26963;SDS011;14521;48.148;-1.656;2022-09-09T06:47:45;3.92;;;1.00;;
26963;SDS011;14521;48.148;-1.656;2022-09-09T06:54:36;7.55;;;1.08;;
26963;SDS011;14521;48.148;-1.656;2022-09-09T06:57:59;5.80;;;1.30;;
26963;SDS011;14521;48.148;-1.656;2022-09-09T07:01:26;7.50;;;1.17;;
26963;SDS011;14521;48.148;-1.656;2022-09-09T07:04:52;6.78;;;1.58;;
26963;SDS011;14521;48.148;-1.656;2022-09-09T07:08:14;12.15;;;1.65;;
26963;SDS011;14521;48.148;-1.656;2022-09-09T07:11:41;7.53;;;1.00;;
26963;SDS011;14521;48.148;-1.656;2022-09-09T07:15:09;11.98;;;1.50;;
26963;SDS011;14521;48.148;-1.656;2022-09-09T07:18:35;6.28;;;1.25;;
26963;SDS011;14521;48.148;-1.656;2022-09-09T07:21:58;8.73;;;1.40;;
26963;SDS011;14521;48.148;-1.656;2022-09-09T07:25:21;8.10;;;1.00;;
26963;SDS011;14521;48.148;-1.656;2022-09-09T07:28:43;7.47;;;1.10;;
26963;SDS011;14521;48.148;-1.656;2022-09-09T07:32:06;8.77;;;1.30;;
26963;SDS011;14521;48.148;-1.656;2022-09-09T07:35:31;10.65;;;1.30;;
26963;SDS011;14521;48.148;-1.656;2022-09-09T07:38:55;4.32;;;1.20;;
26963;SDS011;14521;48.148;-1.656;2022-09-09T07:42:20;9.05;;;1.10;;
26963;SDS011;14521;48.148;-1.656;2022-09-09T07:45:42;8.30;;;1.05;;
26963;SDS011;14521;48.148;-1.656;2022-09-09T07:49:05;6.55;;;0.85;;
26963;SDS011;14521;48.148;-1.656;2022-09-09T07:52:28;13.15;;;1.17;;
26963;SDS011;14521;48.148;-1.656;2022-09-09T07:55:54;7.57;;;1.30;;
26963;SDS011;14521;48.148;-1.656;2022-09-09T07:59:17;7.97;;;1.00;;
26963;SDS011;14521;48.148;-1.656;2022-09-09T08:02:43;7.15;;;1.10;;
26963;SDS011;14521;48.148;-1.656;2022-09-09T08:06:07;7.43;;;1.10;;
26963;SDS011;14521;48.148;-1.656;2022-09-09T08:09:30;5.72;;;1.20;;
26963;SDS011;14521;48.148;-1.656;2022-09-09T08:13:14;8.07;;;1.38;;
26963;SDS011;14521;48.148;-1.656;2022-09-09T08:16:43;7.57;;;1.08;;
26963;SDS011;14521;48.148;-1.656;2022-09-09T08:20:08;6.35;;;1.17;;
26963;SDS011;14521;48.148;-1.656;2022-09-09T08:23:32;3.95;;;0.98;;
26963;SDS011;14521;48.148;-1.656;2022-09-09T08:26:55;9.85;;;0.95;;
26963;SDS011;14521;48.148;-1.656;2022-09-09T08:30:18;3.85;;;0.88;;
26963;SDS011;14521;48.148;-1.656;2022-09-09T08:33:41;6.95;;;0.80;;
26963;SDS011;14521;48.148;-1.656;2022-09-09T08:37:07;9.07;;;0.85;;
26963;SDS011;14521;48.148;-1.656;2022-09-09T08:40:34;5.28;;;1.23;;
26963;SDS011;14521;48.148;-1.656;2022-09-09T08:51:32;3.10;;;0.80;;
26963;SDS011;14521;48.148;-1.656;2022-09-09T08:54:56;4.68;;;1.23;;
26963;SDS011;14521;48.148;-1.656;2022-09-09T08:58:25;5.25;;;0.85;;
26963;SDS011;14521;48.148;-1.656;2022-09-09T09:06:01;2.35;;;0.65;;
26963;SDS011;14521;48.148;-1.656;2022-09-09T09:13:15;6.78;;;0.90;;
26963;SDS011;14521;48.148;-1.656;2022-09-09T09:16:53;3.90;;;0.60;;
26963;SDS011;14521;48.148;-1.656;2022-09-09T09:20:18;6.75;;;1.00;;
26963;SDS011;14521;48.148;-1.656;2022-09-09T09:24:03;3.53;;;0.93;;
26963;SDS011;14521;48.148;-1.656;2022-09-09T09:27:48;1.38;;;0.60;;
26963;SDS011;14521;48.148;-1.656;2022-09-09T09:31:14;5.30;;;0.90;;
26963;SDS011;14521;48.148;-1.656;2022-09-09T09:34:40;2.63;;;0.82;;
26963;SDS011;14521;48.148;-1.656;2022-09-09T09:38:10;2.53;;;0.80;;
26963;SDS011;14521;48.148;-1.656;2022-09-09T09:42:12;3.33;;;0.50;;
26963;SDS011;14521;48.148;-1.656;2022-09-09T09:45:43;1.90;;;0.50;;
26963;SDS011;14521;48.148;-1.656;2022-09-09T09:49:27;1.98;;;0.47;;
26963;SDS011;14521;48.148;-1.656;2022-09-09T09:52:53;2.65;;;0.80;;
26963;SDS011;14521;48.148;-1.656;2022-09-09T09:56:27;2.08;;;0.50;;
26963;SDS011;14521;48.148;-1.656;2022-09-09T10:03:35;3.38;;;0.75;;
26963;SDS011;14521;48.148;-1.656;2022-09-09T10:29:23;2.78;;;0.70;;
26963;SDS011;14521;48.148;-1.656;2022-09-09T10:36:27;1.43;;;0.60;;
26963;SDS011;14521;48.148;-1.656;2022-09-09T10:39:52;2.22;;;0.52;;
26963;SDS011;14521;48.148;-1.656;2022-09-09T10:51:02;3.88;;;0.75;;
26963;SDS011;14521;48.148;-1.656;2022-09-09T10:58:32;2.80;;;0.68;;
26963;SDS011;14521;48.148;-1.656;2022-09-09T11:02:18;1.35;;;0.50;;
26963;SDS011;14521;48.148;-1.656;2022-09-09T11:05:49;1.48;;;0.60;;
26963;SDS011;14521;48.148;-1.656;2022-09-09T11:09:16;3.05;;;0.50;;
26963;SDS011;14521;48.148;-1.656;2022-09-09T11:12:43;1.58;;;0.50;;
26963;SDS011;14521;48.148;-1.656;2022-09-09T11:19:50;2.58;;;0.60;;
26963;SDS011;14521;48.148;-1.656;2022-09-09T11:23:14;1.15;;;0.75;;
26963;SDS011;14521;48.148;-1.656;2022-09-09T11:26:51;1.85;;;0.50;;
26963;SDS011;14521;48.148;-1.656;2022-09-09T11:30:22;1.20;;;0.63;;
26963;SDS011;14521;48.148;-1.656;2022-09-09T11:41:35;1.80;;;0.52;;
26963;SDS011;14521;48.148;-1.656;2022-09-09T11:45:08;1.25;;;0.47;;
26963;SDS011;14521;48.148;-1.656;2022-09-09T11:51:59;4.13;;;0.60;;
26963;SDS011;14521;48.148;-1.656;2022-09-09T11:55:43;0.93;;;0.40;;
26963;SDS011;14521;48.148;-1.656;2022-09-09T11:59:16;2.25;;;0.38;;
26963;SDS011;14521;48.148;-1.656;2022-09-09T12:02:48;1.75;;;0.30;;
26963;SDS011;14521;48.148;-1.656;2022-09-09T12:06:19;1.10;;;0.35;;
26963;SDS011;14521;48.148;-1.656;2022-09-09T12:13:28;3.33;;;0.50;;
26963;SDS011;14521;48.148;-1.656;2022-09-09T12:16:52;1.17;;;0.52;;
26963;SDS011;14521;48.148;-1.656;2022-09-09T12:23:50;0.90;;;0.60;;
26963;SDS011;14521;48.148;-1.656;2022-09-09T12:27:20;1.77;;;0.60;;
26963;SDS011;14521;48.148;-1.656;2022-09-09T12:31:00;2.05;;;0.55;;
26963;SDS011;14521;48.148;-1.656;2022-09-09T12:34:38;0.82;;;0.30;;
26963;SDS011;14521;48.148;-1.656;2022-09-09T12:38:05;3.58;;;0.43;;
26963;SDS011;14521;48.148;-1.656;2022-09-09T12:41:33;2.67;;;0.55;;
26963;SDS011;14521;48.148;-1.656;2022-09-09T12:44:56;0.57;;;0.30;;
26963;SDS011;14521;48.148;-1.656;2022-09-09T12:48:20;2.78;;;0.32;;
26963;SDS011;14521;48.148;-1.656;2022-09-09T12:51:42;1.38;;;0.35;;
26963;SDS011;14521;48.148;-1.656;2022-09-09T12:55:05;2.20;;;0.63;;
26963;SDS011;14521;48.148;-1.656;2022-09-09T12:58:30;0.98;;;0.50;;
26963;SDS011;14521;48.148;-1.656;2022-09-09T13:01:57;2.17;;;0.57;;
26963;SDS011;14521;48.148;-1.656;2022-09-09T13:05:24;2.58;;;0.50;;
26963;SDS011;14521;48.148;-1.656;2022-09-09T13:08:53;1.77;;;0.30;;
26963;SDS011;14521;48.148;-1.656;2022-09-09T13:12:18;2.53;;;0.57;;
26963;SDS011;14521;48.148;-1.656;2022-09-09T13:19:43;1.15;;;0.40;;
26963;SDS011;14521;48.148;-1.656;2022-09-09T13:23:09;1.20;;;0.45;;
26963;SDS011;14521;48.148;-1.656;2022-09-09T13:26:34;0.90;;;0.47;;
26963;SDS011;14521;48.148;-1.656;2022-09-09T13:29:56;1.73;;;0.22;;
26963;SDS011;14521;48.148;-1.656;2022-09-09T13:33:20;1.35;;;0.30;;
26963;SDS011;14521;48.148;-1.656;2022-09-09T13:36:46;1.65;;;0.43;;
26963;SDS011;14521;48.148;-1.656;2022-09-09T13:40:17;2.05;;;0.40;;
26963;SDS011;14521;48.148;-1.656;2022-09-09T13:43:44;0.95;;;0.32;;
26963;SDS011;14521;48.148;-1.656;2022-09-09T13:50:41;0.77;;;0.28;;
26963;SDS011;14521;48.148;-1.656;2022-09-09T13:54:08;1.25;;;0.40;;
26963;SDS011;14521;48.148;-1.656;2022-09-09T13:57:31;0.85;;;0.40;;
26963;SDS011;14521;48.148;-1.656;2022-09-09T14:00:53;2.20;;;0.45;;
26963;SDS011;14521;48.148;-1.656;2022-09-09T14:04:16;1.70;;;0.47;;
26963;SDS011;14521;48.148;-1.656;2022-09-09T14:07:39;10.00;;;0.50;;
26963;SDS011;14521;48.148;-1.656;2022-09-09T14:11:05;1.08;;;0.40;;
26963;SDS011;14521;48.148;-1.656;2022-09-09T14:14:29;6.25;;;0.50;;
26963;SDS011;14521;48.148;-1.656;2022-09-09T14:17:51;0.93;;;0.30;;
26963;SDS011;14521;48.148;-1.656;2022-09-09T14:21:14;3.45;;;0.30;;
26963;SDS011;14521;48.148;-1.656;2022-09-09T14:24:37;1.35;;;0.45;;
26963;SDS011;14521;48.148;-1.656;2022-09-09T14:27:59;0.88;;;0.32;;
26963;SDS011;14521;48.148;-1.656;2022-09-09T14:31:24;2.80;;;0.40;;
26963;SDS011;14521;48.148;-1.656;2022-09-09T14:34:46;0.93;;;0.40;;
26963;SDS011;14521;48.148;-1.656;2022-09-09T14:38:11;0.90;;;0.30;;
26963;SDS011;14521;48.148;-1.656;2022-09-09T14:41:39;2.03;;;0.40;;
26963;SDS011;14521;48.148;-1.656;2022-09-09T14:45:02;1.45;;;0.30;;
26963;SDS011;14521;48.148;-1.656;2022-09-09T14:48:24;1.73;;;0.40;;
26963;SDS011;14521;48.148;-1.656;2022-09-09T14:51:47;0.63;;;0.25;;
26963;SDS011;14521;48.148;-1.656;2022-09-09T14:55:09;2.20;;;0.35;;
26963;SDS011;14521;48.148;-1.656;2022-09-09T14:58:32;1.58;;;0.30;;
26963;SDS011;14521;48.148;-1.656;2022-09-09T15:01:55;2.30;;;0.20;;
26963;SDS011;14521;48.148;-1.656;2022-09-09T15:05:17;1.23;;;0.50;;
26963;SDS011;14521;48.148;-1.656;2022-09-09T15:08:41;1.67;;;0.30;;
26963;SDS011;14521;48.148;-1.656;2022-09-09T15:12:05;0.93;;;0.40;;
26963;SDS011;14521;48.148;-1.656;2022-09-09T15:15:27;5.05;;;0.50;;
26963;SDS011;14521;48.148;-1.656;2022-09-09T15:18:50;1.15;;;0.47;;
26963;SDS011;14521;48.148;-1.656;2022-09-09T15:22:14;1.55;;;0.38;;
26963;SDS011;14521;48.148;-1.656;2022-09-09T15:25:36;1.02;;;0.43;;
26963;SDS011;14521;48.148;-1.656;2022-09-09T15:28:59;0.43;;;0.40;;
26963;SDS011;14521;48.148;-1.656;2022-09-09T15:32:21;0.38;;;0.30;;
26963;SDS011;14521;48.148;-1.656;2022-09-09T15:35:44;1.20;;;0.20;;
26963;SDS011;14521;48.148;-1.656;2022-09-09T15:39:07;0.73;;;0.35;;
26963;SDS011;14521;48.148;-1.656;2022-09-09T15:42:34;0.90;;;0.20;;
26963;SDS011;14521;48.148;-1.656;2022-09-09T15:45:57;0.95;;;0.30;;
26963;SDS011;14521;48.148;-1.656;2022-09-09T15:49:27;1.60;;;0.20;;
26963;SDS011;14521;48.148;-1.656;2022-09-09T15:52:49;0.75;;;0.30;;
26963;SDS011;14521;48.148;-1.656;2022-09-09T15:56:11;0.80;;;0.40;;
26963;SDS011;14521;48.148;-1.656;2022-09-09T15:59:33;1.80;;;0.20;;
26963;SDS011;14521;48.148;-1.656;2022-09-09T16:02:56;7.57;;;0.32;;
26963;SDS011;14521;48.148;-1.656;2022-09-09T16:06:19;0.57;;;0.20;;
26963;SDS011;14521;48.148;-1.656;2022-09-09T16:09:43;1.90;;;0.50;;
26963;SDS011;14521;48.148;-1.656;2022-09-09T16:13:05;11.15;;;0.60;;
26963;SDS011;14521;48.148;-1.656;2022-09-09T16:16:28;2.70;;;0.50;;
26963;SDS011;14521;48.148;-1.656;2022-09-09T16:19:51;0.93;;;0.30;;
26963;SDS011;14521;48.148;-1.656;2022-09-09T16:23:15;4.45;;;0.35;;
26963;SDS011;14521;48.148;-1.656;2022-09-09T16:26:40;1.48;;;0.40;;
26963;SDS011;14521;48.148;-1.656;2022-09-09T16:30:06;5.47;;;0.45;;
26963;SDS011;14521;48.148;-1.656;2022-09-09T16:33:29;2.72;;;0.38;;
26963;SDS011;14521;48.148;-1.656;2022-09-09T16:36:52;3.08;;;0.50;;
26963;SDS011;14521;48.148;-1.656;2022-09-09T16:40:14;7.13;;;0.77;;
26963;SDS011;14521;48.148;-1.656;2022-09-09T16:43:39;0.85;;;0.38;;
26963;SDS011;14521;48.148;-1.656;2022-09-09T16:47:02;0.75;;;0.20;;
26963;SDS011;14521;48.148;-1.656;2022-09-09T16:50:25;6.65;;;0.65;;
26963;SDS011;14521;48.148;-1.656;2022-09-09T16:53:47;3.22;;;0.40;;
26963;SDS011;14521;48.148;-1.656;2022-09-09T16:57:10;3.28;;;1.05;;
26963;SDS011;14521;48.148;-1.656;2022-09-09T17:00:32;0.65;;;0.25;;
26963;SDS011;14521;48.148;-1.656;2022-09-09T17:03:56;1.27;;;0.38;;
26963;SDS011;14521;48.148;-1.656;2022-09-09T17:07:22;2.47;;;0.55;;
26963;SDS011;14521;48.148;-1.656;2022-09-09T17:10:44;1.15;;;0.50;;
26963;SDS011;14521;48.148;-1.656;2022-09-09T17:14:08;1.17;;;0.50;;
26963;SDS011;14521;48.148;-1.656;2022-09-09T17:17:33;4.60;;;0.70;;
26963;SDS011;14521;48.148;-1.656;2022-09-09T17:20:55;5.82;;;0.60;;
26963;SDS011;14521;48.148;-1.656;2022-09-09T17:24:17;3.08;;;0.90;;
26963;SDS011;14521;48.148;-1.656;2022-09-09T17:27:39;9.85;;;0.75;;
26963;SDS011;14521;48.148;-1.656;2022-09-09T17:31:03;3.47;;;0.60;;
26963;SDS011;14521;48.148;-1.656;2022-09-09T17:34:28;1.55;;;0.70;;
26963;SDS011;14521;48.148;-1.656;2022-09-09T17:37:50;2.42;;;0.32;;
26963;SDS011;14521;48.148;-1.656;2022-09-09T17:41:16;0.45;;;0.30;;
26963;SDS011;14521;48.148;-1.656;2022-09-09T17:44:40;5.07;;;0.32;;
26963;SDS011;14521;48.148;-1.656;2022-09-09T17:48:03;5.55;;;0.35;;
26963;SDS011;14521;48.148;-1.656;2022-09-09T17:51:26;2.15;;;0.30;;
26963;SDS011;14521;48.148;-1.656;2022-09-09T17:54:51;0.85;;;0.60;;
26963;SDS011;14521;48.148;-1.656;2022-09-09T17:58:15;1.73;;;0.52;;
26963;SDS011;14521;48.148;-1.656;2022-09-09T18:01:38;5.18;;;0.40;;
26963;SDS011;14521;48.148;-1.656;2022-09-09T18:08:24;8.27;;;0.50;;
26963;SDS011;14521;48.148;-1.656;2022-09-09T18:11:48;1.50;;;0.40;;
26963;SDS011;14521;48.148;-1.656;2022-09-09T18:15:11;2.17;;;0.32;;
26963;SDS011;14521;48.148;-1.656;2022-09-09T18:18:38;5.20;;;0.35;;
26963;SDS011;14521;48.148;-1.656;2022-09-09T18:22:02;7.35;;;0.50;;
26963;SDS011;14521;48.148;-1.656;2022-09-09T18:25:25;1.25;;;0.30;;
26963;SDS011;14521;48.148;-1.656;2022-09-09T18:28:49;4.95;;;0.60;;
26963;SDS011;14521;48.148;-1.656;2022-09-09T18:32:13;1.58;;;0.50;;
26963;SDS011;14521;48.148;-1.656;2022-09-09T18:35:37;2.00;;;0.30;;
26963;SDS011;14521;48.148;-1.656;2022-09-09T18:39:00;1.75;;;0.50;;
26963;SDS011;14521;48.148;-1.656;2022-09-09T18:42:24;1.25;;;0.40;;
26963;SDS011;14521;48.148;-1.656;2022-09-09T18:45:47;3.42;;;0.47;;
26963;SDS011;14521;48.148;-1.656;2022-09-09T18:49:09;4.25;;;0.80;;
26963;SDS011;14521;48.148;-1.656;2022-09-09T18:52:33;2.85;;;0.45;;
26963;SDS011;14521;48.148;-1.656;2022-09-09T18:55:59;4.07;;;0.65;;
26963;SDS011;14521;48.148;-1.656;2022-09-09T18:59:23;2.63;;;0.45;;
26963;SDS011;14521;48.148;-1.656;2022-09-09T19:02:47;1.75;;;0.60;;
26963;SDS011;14521;48.148;-1.656;2022-09-09T19:06:15;2.47;;;0.55;;
26963;SDS011;14521;48.148;-1.656;2022-09-09T19:09:39;2.80;;;0.50;;
26963;SDS011;14521;48.148;-1.656;2022-09-09T19:13:01;4.32;;;0.73;;
26963;SDS011;14521;48.148;-1.656;2022-09-09T19:16:26;5.53;;;0.80;;
26963;SDS011;14521;48.148;-1.656;2022-09-09T19:19:50;9.27;;;0.60;;
26963;SDS011;14521;48.148;-1.656;2022-09-09T19:23:13;7.63;;;0.85;;
26963;SDS011;14521;48.148;-1.656;2022-09-09T19:26:37;1.52;;;0.38;;
26963;SDS011;14521;48.148;-1.656;2022-09-09T19:30:01;4.35;;;0.40;;
26963;SDS011;14521;48.148;-1.656;2022-09-09T19:33:24;6.53;;;0.63;;
26963;SDS011;14521;48.148;-1.656;2022-09-09T19:36:48;3.60;;;0.47;;
26963;SDS011;14521;48.148;-1.656;2022-09-09T19:40:12;3.30;;;0.57;;
26963;SDS011;14521;48.148;-1.656;2022-09-09T19:43:34;3.97;;;0.65;;
26963;SDS011;14521;48.148;-1.656;2022-09-09T19:46:57;6.00;;;0.98;;
26963;SDS011;14521;48.148;-1.656;2022-09-09T19:50:21;4.53;;;0.70;;
26963;SDS011;14521;48.148;-1.656;2022-09-09T19:53:45;3.25;;;0.75;;
26963;SDS011;14521;48.148;-1.656;2022-09-09T19:57:11;3.47;;;0.80;;
26963;SDS011;14521;48.148;-1.656;2022-09-09T20:00:34;2.58;;;0.77;;
26963;SDS011;14521;48.148;-1.656;2022-09-09T20:04:01;6.38;;;0.60;;
26963;SDS011;14521;48.148;-1.656;2022-09-09T20:07:25;4.65;;;0.70;;
26963;SDS011;14521;48.148;-1.656;2022-09-09T20:10:51;4.78;;;0.60;;
26963;SDS011;14521;48.148;-1.656;2022-09-09T20:14:14;4.22;;;0.50;;
26963;SDS011;14521;48.148;-1.656;2022-09-09T20:17:37;5.70;;;0.75;;
26963;SDS011;14521;48.148;-1.656;2022-09-09T20:21:00;4.53;;;0.60;;
26963;SDS011;14521;48.148;-1.656;2022-09-09T20:24:33;6.70;;;1.10;;
26963;SDS011;14521;48.148;-1.656;2022-09-09T20:27:57;6.85;;;0.70;;
26963;SDS011;14521;48.148;-1.656;2022-09-09T20:31:21;2.70;;;0.60;;
26963;SDS011;14521;48.148;-1.656;2022-09-09T20:34:45;5.15;;;0.65;;
26963;SDS011;14521;48.148;-1.656;2022-09-09T20:38:09;1.95;;;0.65;;
26963;SDS011;14521;48.148;-1.656;2022-09-09T20:41:32;4.68;;;0.90;;
26963;SDS011;14521;48.148;-1.656;2022-09-09T20:44:55;9.05;;;0.95;;
26963;SDS011;14521;48.148;-1.656;2022-09-09T20:48:18;7.57;;;0.68;;
26963;SDS011;14521;48.148;-1.656;2022-09-09T20:51:40;2.05;;;0.50;;
26963;SDS011;14521;48.148;-1.656;2022-09-09T20:55:02;8.07;;;0.60;;
26963;SDS011;14521;48.148;-1.656;2022-09-09T20:58:27;10.10;;;1.17;;
26963;SDS011;14521;48.148;-1.656;2022-09-09T21:01:54;7.47;;;0.90;;
26963;SDS011;14521;48.148;-1.656;2022-09-09T21:05:17;5.85;;;0.85;;
26963;SDS011;14521;48.148;-1.656;2022-09-09T21:08:45;7.72;;;0.90;;
26963;SDS011;14521;48.148;-1.656;2022-09-09T21:12:07;4.32;;;0.70;;
26963;SDS011;14521;48.148;-1.656;2022-09-09T21:15:29;9.98;;;1.05;;
26963;SDS011;14521;48.148;-1.656;2022-09-09T21:18:52;4.90;;;0.75;;
26963;SDS011;14521;48.148;-1.656;2022-09-09T21:22:15;5.55;;;1.00;;
26963;SDS011;14521;48.148;-1.656;2022-09-09T21:25:37;6.18;;;0.77;;
26963;SDS011;14521;48.148;-1.656;2022-09-09T21:29:00;2.35;;;0.60;;
26963;SDS011;14521;48.148;-1.656;2022-09-09T21:32:22;3.28;;;0.52;;
26963;SDS011;14521;48.148;-1.656;2022-09-09T21:35:44;12.13;;;0.60;;
26963;SDS011;14521;48.148;-1.656;2022-09-09T21:39:07;3.35;;;0.63;;
26963;SDS011;14521;48.148;-1.656;2022-09-09T21:42:29;2.75;;;0.68;;
26963;SDS011;14521;48.148;-1.656;2022-09-09T21:45:51;8.18;;;0.73;;
26963;SDS011;14521;48.148;-1.656;2022-09-09T21:49:14;3.55;;;1.00;;
26963;SDS011;14521;48.148;-1.656;2022-09-09T21:52:36;1.55;;;0.60;;
26963;SDS011;14521;48.148;-1.656;2022-09-09T21:56:03;3.67;;;0.80;;
26963;SDS011;14521;48.148;-1.656;2022-09-09T21:59:27;3.60;;;0.60;;
26963;SDS011;14521;48.148;-1.656;2022-09-09T22:02:50;5.45;;;0.95;;
26963;SDS011;14521;48.148;-1.656;2022-09-09T22:06:13;6.88;;;0.65;;
26963;SDS011;14521;48.148;-1.656;2022-09-09T22:09:37;3.97;;;0.70;;
26963;SDS011;14521;48.148;-1.656;2022-09-09T22:12:59;3.38;;;0.70;;
26963;SDS011;14521;48.148;-1.656;2022-09-09T22:16:21;1.70;;;0.68;;
26963;SDS011;14521;48.148;-1.656;2022-09-09T22:19:45;7.35;;;1.00;;
26963;SDS011;14521;48.148;-1.656;2022-09-09T22:23:08;2.92;;;0.50;;
26963;SDS011;14521;48.148;-1.656;2022-09-09T22:26:32;2.88;;;0.60;;
26963;SDS011;14521;48.148;-1.656;2022-09-09T22:29:56;3.13;;;0.52;;
26963;SDS011;14521;48.148;-1.656;2022-09-09T22:33:19;2.45;;;0.45;;
26963;SDS011;14521;48.148;-1.656;2022-09-09T22:36:41;0.82;;;0.50;;
26963;SDS011;14521;48.148;-1.656;2022-09-09T22:40:04;2.33;;;0.52;;
26963;SDS011;14521;48.148;-1.656;2022-09-09T22:43:27;1.63;;;0.63;;
26963;SDS011;14521;48.148;-1.656;2022-09-09T22:46:49;1.40;;;0.38;;
26963;SDS011;14521;48.148;-1.656;2022-09-09T22:50:13;1.20;;;0.40;;
26963;SDS011;14521;48.148;-1.656;2022-09-09T22:53:35;2.80;;;0.60;;
26963;SDS011;14521;48.148;-1.656;2022-09-09T22:56:58;3.10;;;0.60;;
26963;SDS011;14521;48.148;-1.656;2022-09-09T23:00:20;2.13;;;0.50;;
26963;SDS011;14521;48.148;-1.656;2022-09-09T23:03:43;3.20;;;0.55;;